Time;durP1;ratioP1;P1;durP2;ratioP2;P2;SDS_P1;SDS_P2;PMS_P1;PMS_P2;Temp;Humidity;BMP_temperature;BMP_pressure;BME280_temperature;BME280_humidity;BME280_pressure;Samples;Min_cycle;Max_cycle;Signal;HPM_P1;HPM_P2
2021/04/30 00:02:26;;;;;;;21.23;12.50;;;;;;;;;;5033109;28;20021;-73
2021/04/30 00:04:52;;;;;;;16.38;12.38;;;;;;;;;;5033081;28;20037;-73
2021/04/30 00:07:19;;;;;;;16.38;10.82;;;;;;;;;;5015598;28;20353;-73
2021/04/30 00:09:44;;;;;;;19.05;12.63;;;;;;;;;;5034822;28;20033;-73
2021/04/30 00:12:10;;;;;;;18.45;12.88;;;;;;;;;;5036632;28;20102;-73
2021/04/30 00:14:35;;;;;;;20.75;12.82;;;;;;;;;;5036768;28;20092;-73
2021/04/30 00:17:00;;;;;;;18.67;12.23;;;;;;;;;;5036849;28;20033;-73
2021/04/30 00:19:25;;;;;;;17.45;12.77;;;;;;;;;;5036626;28;20496;-73
2021/04/30 00:21:51;;;;;;;17.88;12.88;;;;;;;;;;5036686;28;20465;-73
2021/04/30 00:24:17;;;;;;;16.48;12.35;;;;;;;;;;5036484;28;20103;-73
2021/04/30 00:26:42;;;;;;;18.05;12.85;;;;;;;;;;5036756;28;20040;-73
2021/04/30 00:29:07;;;;;;;27.17;13.20;;;;;;;;;;5036540;28;20044;-73
2021/04/30 00:31:35;;;;;;;15.45;12.38;;;;;;;;;;5036456;28;20105;-73
2021/04/30 00:34:02;;;;;;;17.77;12.30;;;;;;;;;;5036390;28;20022;-73
2021/04/30 00:36:27;;;;;;;16.38;12.68;;;;;;;;;;5034767;28;20013;-73
2021/04/30 00:38:52;;;;;;;16.33;13.00;;;;;;;;;;5018910;28;20486;-73
2021/04/30 00:41:18;;;;;;;19.40;12.80;;;;;;;;;;5036262;28;20099;-73
2021/04/30 00:43:43;;;;;;;18.42;13.15;;;;;;;;;;5036111;28;20457;-73
2021/04/30 00:46:08;;;;;;;15.77;11.57;;;;;;;;;;5036143;28;20623;-73
2021/04/30 00:48:34;;;;;;;14.10;12.18;;;;;;;;;;5018756;28;20056;-73
2021/04/30 00:51:01;;;;;;;18.60;12.85;;;;;;;;;;5036230;28;20022;-74
2021/04/30 00:53:26;;;;;;;22.77;12.07;;;;;;;;;;5035999;28;20017;-74
2021/04/30 00:55:54;;;;;;;17.38;13.20;;;;;;;;;;5035796;28;20166;-74
2021/04/30 00:58:19;;;;;;;18.45;12.88;;;;;;;;;;5036021;28;20021;-73
2021/04/30 01:00:44;;;;;;;18.35;12.77;;;;;;;;;;5035767;28;20083;-73
2021/04/30 01:03:12;;;;;;;17.27;12.55;;;;;;;;;;5035835;28;20040;-73
2021/04/30 01:05:38;;;;;;;18.42;12.80;;;;;;;;;;5035725;28;20022;-73
2021/04/30 01:08:06;;;;;;;17.23;12.52;;;;;;;;;;5018427;28;20363;-73
2021/04/30 01:10:31;;;;;;;18.48;13.35;;;;;;;;;;5035739;28;20434;-73
2021/04/30 01:12:56;;;;;;;18.52;14.20;;;;;;;;;;5018426;28;20100;-74
2021/04/30 01:15:22;;;;;;;19.50;13.68;;;;;;;;;;5035595;28;20030;-73
2021/04/30 01:17:50;;;;;;;18.92;14.02;;;;;;;;;;5035576;28;20075;-72
2021/04/30 01:20:16;;;;;;;18.60;13.10;;;;;;;;;;5034857;28;20017;-72
2021/04/30 01:22:51;;;;;;;21.63;13.70;;;;;;;;;;5030038;28;20036;-72
2021/04/30 01:25:27;;;;;;;22.67;15.52;;;;;;;;;;5030391;28;20442;-72
2021/04/30 01:27:53;;;;;;;17.23;13.43;;;;;;;;;;5035111;28;20108;-73
2021/04/30 01:30:19;;;;;;;15.40;11.65;;;;;;;;;;5017756;28;20105;-73
2021/04/30 01:32:47;;;;;;;15.48;11.43;;;;;;;;;;5019850;28;20076;-73
2021/04/30 01:35:18;;;;;;;20.05;11.55;;;;;;;;;;5034977;28;20022;-73
2021/04/30 01:37:45;;;;;;;15.65;11.93;;;;;;;;;;5018292;28;20125;-73
2021/04/30 01:40:14;;;;;;;18.00;12.88;;;;;;;;;;5035164;28;20036;-73
2021/04/30 01:42:53;;;;;;;18.55;12.18;;;;;;;;;;5035179;28;20022;-72
2021/04/30 01:45:19;;;;;;;24.15;11.80;;;;;;;;;;5035111;28;20040;-73
2021/04/30 01:47:44;;;;;;;15.85;12.18;;;;;;;;;;5034876;28;20013;-72
2021/04/30 01:50:11;;;;;;;16.52;12.02;;;;;;;;;;5034992;28;20010;-72
2021/04/30 01:52:37;;;;;;;14.40;10.75;;;;;;;;;;5036265;28;20033;-72
2021/04/30 01:55:04;;;;;;;18.15;10.75;;;;;;;;;;5032989;28;20075;-73
2021/04/30 01:57:29;;;;;;;13.35;11.30;;;;;;;;;;5032870;28;20092;-73
2021/04/30 01:59:57;;;;;;;21.95;12.00;;;;;;;;;;5034582;28;20492;-73
2021/04/30 02:02:24;;;;;;;17.95;12.55;;;;;;;;;;5034783;28;20277;-73
2021/04/30 02:04:49;;;;;;;16.13;12.50;;;;;;;;;;5034541;28;20025;-73
2021/04/30 02:07:15;;;;;;;17.77;12.80;;;;;;;;;;5034575;28;20155;-73
2021/04/30 02:09:40;;;;;;;19.90;12.32;;;;;;;;;;5034536;28;20018;-73
2021/04/30 02:12:07;;;;;;;16.65;12.70;;;;;;;;;;5017219;28;20040;-73
2021/04/30 02:14:32;;;;;;;15.55;11.57;;;;;;;;;;5016355;28;20036;-73
2021/04/30 02:16:57;;;;;;;19.38;11.98;;;;;;;;;;5034345;28;20026;-72
2021/04/30 02:19:23;;;;;;;18.02;11.98;;;;;;;;;;5024777;28;20021;-72
2021/04/30 02:21:48;;;;;;;19.35;13.05;;;;;;;;;;5033684;28;20025;-72
2021/04/30 02:24:13;;;;;;;18.52;13.30;;;;;;;;;;5034160;28;20053;-73
2021/04/30 02:26:38;;;;;;;18.80;13.00;;;;;;;;;;5034261;28;20033;-73
2021/04/30 02:29:04;;;;;;;20.60;12.70;;;;;;;;;;5016422;28;20017;-73
2021/04/30 02:31:29;;;;;;;16.98;12.82;;;;;;;;;;5033022;28;20108;-72
2021/04/30 02:33:54;;;;;;;17.30;12.32;;;;;;;;;;5016453;28;20056;-73
2021/04/30 02:36:21;;;;;;;18.33;11.98;;;;;;;;;;5032319;28;20053;-73
2021/04/30 02:38:47;;;;;;;17.00;11.40;;;;;;;;;;5034007;28;20025;-73
2021/04/30 02:41:12;;;;;;;25.52;12.70;;;;;;;;;;5016369;28;20045;-73
2021/04/30 02:43:37;;;;;;;18.60;12.48;;;;;;;;;;5017802;28;20059;-72
2021/04/30 02:46:05;;;;;;;16.08;12.23;;;;;;;;;;5033312;28;20021;-72
2021/04/30 02:50:56;;;;;;;14.68;11.95;;;;;;;;;;5033445;28;21789;-73
2021/04/30 02:53:21;;;;;;;16.25;12.38;;;;;;;;;;5033301;28;20509;-72
2021/04/30 02:55:46;;;;;;;14.52;11.88;;;;;;;;;;5016219;28;20140;-72
2021/04/30 02:58:13;;;;;;;15.98;11.93;;;;;;;;;;5034013;28;20041;-73
2021/04/30 03:00:38;;;;;;;19.13;12.60;;;;;;;;;;5033204;28;20052;-73
2021/04/30 03:03:04;;;;;;;16.80;11.95;;;;;;;;;;5033577;28;20111;-74
2021/04/30 03:05:29;;;;;;;15.05;12.40;;;;;;;;;;5033438;28;20025;-73
2021/04/30 03:07:55;;;;;;;17.65;12.27;;;;;;;;;;5032957;28;20018;-73
2021/04/30 03:10:20;;;;;;;16.42;12.80;;;;;;;;;;5016114;28;20110;-73
2021/04/30 03:12:49;;;;;;;15.10;11.38;;;;;;;;;;5033487;28;20028;-73
2021/04/30 03:15:15;;;;;;;18.88;12.40;;;;;;;;;;5016405;28;20578;-74
2021/04/30 03:17:43;;;;;;;19.50;11.75;;;;;;;;;;5019271;28;20018;-73
2021/04/30 03:20:10;;;;;;;17.42;12.30;;;;;;;;;;5013114;28;20473;-74
2021/04/30 03:22:38;;;;;;;15.18;11.57;;;;;;;;;;5003635;28;20025;-73
2021/04/30 03:25:04;;;;;;;23.17;12.52;;;;;;;;;;5033324;28;20101;-73
2021/04/30 03:27:32;;;;;;;20.88;12.32;;;;;;;;;;5033020;28;20049;-73
2021/04/30 03:29:59;;;;;;;15.55;12.52;;;;;;;;;;5033552;28;20018;-73
2021/04/30 03:32:24;;;;;;;14.45;11.80;;;;;;;;;;5033472;28;20018;-73
2021/04/30 03:34:53;;;;;;;18.50;12.10;;;;;;;;;;5033003;28;20112;-73
2021/04/30 03:37:19;;;;;;;18.15;12.82;;;;;;;;;;5033489;28;20087;-73
2021/04/30 03:39:44;;;;;;;17.88;11.63;;;;;;;;;;5014289;28;20021;-74
2021/04/30 03:42:09;;;;;;;18.60;13.13;;;;;;;;;;5034448;28;20409;-73
2021/04/30 03:44:37;;;;;;;13.68;11.73;;;;;;;;;;5034321;28;20044;-73
2021/04/30 03:47:02;;;;;;;19.70;13.18;;;;;;;;;;5037358;28;20021;-73
2021/04/30 03:49:30;;;;;;;14.43;11.43;;;;;;;;;;5019699;28;20095;-73
2021/04/30 03:51:55;;;;;;;17.70;11.52;;;;;;;;;;5037420;28;20021;-73
2021/04/30 03:54:20;;;;;;;19.15;11.20;;;;;;;;;;5035950;28;20025;-73
2021/04/30 03:56:46;;;;;;;16.42;12.13;;;;;;;;;;5023068;28;20053;-73
2021/04/30 03:59:13;;;;;;;17.05;11.55;;;;;;;;;;5018965;28;20037;-73
2021/04/30 04:01:39;;;;;;;17.20;12.23;;;;;;;;;;5035994;28;20030;-74
2021/04/30 04:04:04;;;;;;;14.70;11.63;;;;;;;;;;5036336;28;20438;-74
2021/04/30 04:06:29;;;;;;;20.25;12.10;;;;;;;;;;5036979;28;20051;-73
2021/04/30 04:08:57;;;;;;;19.73;12.23;;;;;;;;;;5019416;28;20045;-74
2021/04/30 04:11:22;;;;;;;17.45;12.73;;;;;;;;;;5020996;28;20087;-74
2021/04/30 04:13:48;;;;;;;17.65;13.35;;;;;;;;;;5031575;28;20446;-73
2021/04/30 04:16:15;;;;;;;15.82;12.55;;;;;;;;;;5034040;28;20104;-74
2021/04/30 04:18:43;;;;;;;19.27;11.95;;;;;;;;;;5018792;28;20039;-74
2021/04/30 04:21:08;;;;;;;19.75;13.18;;;;;;;;;;5018378;28;20037;-74
2021/04/30 04:23:33;;;;;;;21.80;13.75;;;;;;;;;;5036663;28;20030;-74
2021/04/30 04:26:01;;;;;;;18.70;12.60;;;;;;;;;;5036703;28;20021;-73
2021/04/30 04:28:26;;;;;;;16.10;11.02;;;;;;;;;;5031886;28;20450;-73
2021/04/30 04:30:55;;;;;;;18.80;12.45;;;;;;;;;;5016767;28;20083;-73
2021/04/30 04:33:23;;;;;;;19.42;12.80;;;;;;;;;;5016924;28;20033;-73
2021/04/30 04:35:48;;;;;;;19.13;11.68;;;;;;;;;;5025056;28;20029;-73
2021/04/30 04:38:13;;;;;;;16.58;12.57;;;;;;;;;;5036492;28;20032;-73
2021/04/30 04:40:38;;;;;;;27.30;13.70;;;;;;;;;;5036455;28;20021;-73
2021/04/30 04:43:06;;;;;;;18.63;13.60;;;;;;;;;;5035251;28;20029;-73
2021/04/30 04:45:34;;;;;;;18.30;12.98;;;;;;;;;;5035759;28;20357;-73
2021/04/30 04:48:01;;;;;;;20.02;13.35;;;;;;;;;;5030788;28;20014;-73
2021/04/30 04:50:27;;;;;;;17.17;12.45;;;;;;;;;;5016352;28;20454;-73
2021/04/30 04:52:52;;;;;;;17.08;13.02;;;;;;;;;;5004434;28;20055;-73
2021/04/30 04:55:17;;;;;;;17.83;13.27;;;;;;;;;;5035765;28;20399;-73
2021/04/30 04:57:43;;;;;;;22.65;13.50;;;;;;;;;;5035365;28;20037;-73
2021/04/30 05:00:12;;;;;;;18.45;13.30;;;;;;;;;;5034398;28;20017;-74
2021/04/30 05:02:38;;;;;;;14.55;12.48;;;;;;;;;;5035843;28;20045;-73
2021/04/30 05:05:04;;;;;;;14.77;11.82;;;;;;;;;;5035829;28;20350;-74
2021/04/30 05:07:29;;;;;;;15.43;11.43;;;;;;;;;;5035495;28;20040;-74
2021/04/30 05:09:54;;;;;;;21.55;12.35;;;;;;;;;;5034694;28;20384;-73
2021/04/30 05:12:22;;;;;;;17.10;11.60;;;;;;;;;;5035246;28;20024;-73
2021/04/30 05:14:47;;;;;;;18.45;12.07;;;;;;;;;;5034751;28;20025;-73
2021/04/30 05:17:12;;;;;;;20.90;12.43;;;;;;;;;;5026301;28;20093;-74
2021/04/30 05:19:38;;;;;;;18.08;12.80;;;;;;;;;;5014884;28;20044;-73
2021/04/30 05:22:09;;;;;;;17.48;12.75;;;;;;;;;;5024890;28;20036;-73
2021/04/30 05:24:35;;;;;;;15.35;11.98;;;;;;;;;;5035216;28;20043;-73
2021/04/30 05:27:03;;;;;;;15.38;12.30;;;;;;;;;;5034501;28;20017;-73
2021/04/30 05:29:28;;;;;;;18.42;13.18;;;;;;;;;;5034962;28;20025;-74
2021/04/30 05:31:55;;;;;;;15.38;11.85;;;;;;;;;;5034302;28;20013;-73
2021/04/30 05:34:23;;;;;;;17.70;12.02;;;;;;;;;;5034546;28;20025;-73
2021/04/30 05:36:48;;;;;;;17.10;11.50;;;;;;;;;;5034493;28;20067;-75
2021/04/30 05:39:15;;;;;;;21.17;12.90;;;;;;;;;;5017482;28;20115;-73
2021/04/30 05:41:41;;;;;;;20.75;12.52;;;;;;;;;;5034988;28;20100;-73
2021/04/30 05:44:06;;;;;;;21.30;12.52;;;;;;;;;;5035305;28;20526;-74
2021/04/30 05:46:31;;;;;;;21.58;13.43;;;;;;;;;;5030864;28;20028;-73
2021/04/30 05:48:56;;;;;;;15.88;12.98;;;;;;;;;;5034147;28;20049;-73
2021/04/30 05:51:22;;;;;;;19.42;12.43;;;;;;;;;;5034608;28;20434;-73
2021/04/30 05:53:47;;;;;;;15.32;12.00;;;;;;;;;;5028910;28;20025;-73
2021/04/30 05:56:14;;;;;;;20.90;13.30;;;;;;;;;;5034123;28;20045;-72
2021/04/30 05:58:39;;;;;;;20.48;13.43;;;;;;;;;;5030551;28;20025;-74
2021/04/30 06:01:05;;;;;;;20.38;12.85;;;;;;;;;;5034370;28;20036;-73
2021/04/30 06:03:32;;;;;;;14.95;12.40;;;;;;;;;;5017418;28;20339;-73
2021/04/30 06:05:58;;;;;;;19.33;12.25;;;;;;;;;;5023985;28;20478;-71
2021/04/30 06:08:23;;;;;;;16.77;12.25;;;;;;;;;;5027203;28;20099;-73
2021/04/30 06:10:48;;;;;;;21.98;13.50;;;;;;;;;;5034193;28;20120;-73
2021/04/30 06:13:13;;;;;;;17.92;12.93;;;;;;;;;;5034211;28;20158;-73
2021/04/30 06:15:38;;;;;;;19.23;13.27;;;;;;;;;;5025195;28;20049;-71
2021/04/30 06:18:04;;;;;;;17.00;11.88;;;;;;;;;;5031368;28;20033;-72
2021/04/30 06:20:29;;;;;;;21.23;13.32;;;;;;;;;;5031310;28;20025;-72
2021/04/30 06:22:54;;;;;;;16.73;12.40;;;;;;;;;;5032365;28;20036;-72
2021/04/30 06:25:22;;;;;;;20.83;13.60;;;;;;;;;;5017168;28;20032;-73
2021/04/30 06:27:48;;;;;;;22.90;13.55;;;;;;;;;;5008755;28;20354;-75
2021/04/30 06:30:13;;;;;;;21.90;13.13;;;;;;;;;;5030724;28;20013;-74
2021/04/30 06:32:43;;;;;;;23.02;13.98;;;;;;;;;;5024294;28;20450;-74
2021/04/30 06:35:08;;;;;;;18.83;13.00;;;;;;;;;;5026355;28;20035;-74
2021/04/30 06:37:34;;;;;;;18.30;13.23;;;;;;;;;;5028615;28;20029;-74
2021/04/30 06:40:02;;;;;;;19.38;13.77;;;;;;;;;;5018210;28;20049;-74
2021/04/30 06:42:29;;;;;;;17.63;12.27;;;;;;;;;;5033411;28;20433;-75
2021/04/30 06:44:56;;;;;;;21.77;13.63;;;;;;;;;;5033751;28;20476;-75
2021/04/30 06:47:22;;;;;;;22.50;13.00;;;;;;;;;;5032086;28;20013;-75
2021/04/30 06:49:47;;;;;;;19.80;13.77;;;;;;;;;;5033336;28;20022;-75
2021/04/30 06:52:14;;;;;;;20.17;14.82;;;;;;;;;;5028945;28;20018;-73
2021/04/30 06:54:40;;;;;;;18.67;13.18;;;;;;;;;;5032194;28;20071;-73
2021/04/30 06:57:05;;;;;;;17.40;13.88;;;;;;;;;;5033640;28;20037;-75
2021/04/30 06:59:30;;;;;;;23.80;13.85;;;;;;;;;;5033716;28;20033;-73
2021/04/30 07:01:56;;;;;;;17.95;12.88;;;;;;;;;;5033697;28;20025;-74
2021/04/30 07:04:21;;;;;;;17.27;13.02;;;;;;;;;;5033052;28;20060;-72
2021/04/30 07:06:46;;;;;;;19.42;13.23;;;;;;;;;;5033281;28;20119;-73
2021/04/30 07:09:11;;;;;;;18.23;12.00;;;;;;;;;;5020251;28;20060;-72
2021/04/30 07:11:37;;;;;;;25.33;13.85;;;;;;;;;;5034459;28;20163;-74
2021/04/30 07:14:04;;;;;;;27.48;15.27;;;;;;;;;;5031551;28;20437;-74
2021/04/30 07:16:31;;;;;;;18.88;13.18;;;;;;;;;;5029762;28;20582;-74
2021/04/30 07:18:57;;;;;;;19.73;12.88;;;;;;;;;;5033047;28;20022;-74
2021/04/30 07:21:22;;;;;;;21.63;12.95;;;;;;;;;;5033022;28;20096;-74
2021/04/30 07:23:47;;;;;;;21.45;14.23;;;;;;;;;;5033025;28;20048;-74
2021/04/30 07:26:14;;;;;;;18.35;12.32;;;;;;;;;;5032876;28;20017;-74
2021/04/30 07:28:40;;;;;;;15.43;11.75;;;;;;;;;;5033084;28;20037;-74
2021/04/30 07:31:05;;;;;;;22.77;13.15;;;;;;;;;;5019755;28;20022;-74
2021/04/30 07:33:31;;;;;;;18.63;12.80;;;;;;;;;;5032269;28;20036;-74
2021/04/30 07:35:56;;;;;;;22.35;13.20;;;;;;;;;;5032497;28;20021;-74
2021/04/30 07:38:21;;;;;;;18.38;13.30;;;;;;;;;;5032343;28;20366;-73
2021/04/30 07:40:47;;;;;;;15.75;12.15;;;;;;;;;;5016031;28;20056;-73
2021/04/30 07:43:13;;;;;;;14.77;12.65;;;;;;;;;;5014970;28;20049;-74
2021/04/30 07:45:39;;;;;;;18.27;12.63;;;;;;;;;;5032117;28;20449;-74
2021/04/30 07:48:05;;;;;;;20.77;12.25;;;;;;;;;;5029807;28;20086;-75
2021/04/30 07:50:32;;;;;;;20.83;12.52;;;;;;;;;;5031541;28;20017;-72
2021/04/30 07:52:58;;;;;;;25.98;13.85;;;;;;;;;;5032642;28;20044;-75
2021/04/30 07:55:23;;;;;;;14.65;11.65;;;;;;;;;;5032594;28;20454;-74
2021/04/30 07:57:48;;;;;;;18.40;12.23;;;;;;;;;;5034696;28;20033;-74
2021/04/30 08:00:14;;;;;;;23.45;12.10;;;;;;;;;;5034477;28;20399;-75
2021/04/30 08:02:41;;;;;;;22.85;13.43;;;;;;;;;;5034432;28;20024;-74
2021/04/30 08:05:07;;;;;;;23.08;12.68;;;;;;;;;;5029807;28;20044;-74
2021/04/30 08:07:35;;;;;;;15.88;11.70;;;;;;;;;;5035608;28;20013;-74
2021/04/30 08:10:03;;;;;;;19.90;12.25;;;;;;;;;;5040386;28;20056;-75
2021/04/30 08:12:28;;;;;;;20.30;11.65;;;;;;;;;;5017104;28;20021;-74
2021/04/30 08:14:55;;;;;;;17.17;10.90;;;;;;;;;;5034111;28;20033;-74
2021/04/30 08:17:23;;;;;;;20.15;11.65;;;;;;;;;;5032792;28;20036;-74
2021/04/30 08:19:48;;;;;;;19.25;11.88;;;;;;;;;;5028916;28;20021;-74
2021/04/30 08:22:16;;;;;;;21.00;12.10;;;;;;;;;;5034485;28;20120;-75
2021/04/30 08:24:43;;;;;;;20.25;11.95;;;;;;;;;;5017843;28;20025;-75
2021/04/30 08:27:09;;;;;;;19.70;12.32;;;;;;;;;;5033092;28;20025;-74
2021/04/30 08:29:36;;;;;;;19.70;11.77;;;;;;;;;;5032241;28;20087;-74
2021/04/30 08:32:03;;;;;;;20.33;12.40;;;;;;;;;;5041923;28;20030;-75
2021/04/30 08:34:28;;;;;;;16.65;11.43;;;;;;;;;;5038580;28;20033;-74
2021/04/30 08:36:54;;;;;;;21.20;12.60;;;;;;;;;;5038637;28;20343;-75
2021/04/30 08:39:19;;;;;;;21.58;11.60;;;;;;;;;;5038692;28;20084;-75
2021/04/30 08:41:47;;;;;;;21.13;12.35;;;;;;;;;;5035635;28;20025;-75
2021/04/30 08:44:13;;;;;;;19.02;12.38;;;;;;;;;;5035642;28;20318;-74
2021/04/30 08:46:38;;;;;;;22.95;12.90;;;;;;;;;;5035537;28;20027;-75
2021/04/30 08:49:08;;;;;;;20.15;12.50;;;;;;;;;;5034786;28;20021;-75
2021/04/30 08:51:34;;;;;;;20.67;13.00;;;;;;;;;;5029478;28;20022;-75
2021/04/30 08:54:02;;;;;;;15.90;12.00;;;;;;;;;;5015740;28;20138;-75
2021/04/30 08:56:28;;;;;;;18.65;12.32;;;;;;;;;;5014344;28;20060;-74
2021/04/30 08:58:56;;;;;;;21.75;12.50;;;;;;;;;;5014741;28;20026;-74
2021/04/30 09:01:22;;;;;;;26.85;12.35;;;;;;;;;;5029974;28;20017;-74
2021/04/30 09:03:47;;;;;;;25.98;13.48;;;;;;;;;;5034027;28;20511;-74
2021/04/30 09:06:18;;;;;;;19.33;12.52;;;;;;;;;;5034621;28;20021;-73
2021/04/30 09:08:45;;;;;;;27.17;12.65;;;;;;;;;;5034917;28;20346;-74
2021/04/30 09:11:30;;;;;;;21.77;12.18;;;;;;;;;;5035550;28;20009;-75
2021/04/30 09:14:14;;;;;;;23.75;12.60;;;;;;;;;;5017186;28;20029;-76
2021/04/30 09:16:58;;;;;;;19.73;11.35;;;;;;;;;;5035049;28;20453;-75
2021/04/30 09:19:34;;;;;;;22.27;12.70;;;;;;;;;;5034348;28;20025;-75
2021/04/30 09:21:59;;;;;;;;;;;;;;;;;;5033436;28;20025;-75
2021/04/30 09:24:25;;;;;;;20.20;12.07;;;;;;;;;;5034783;28;19913;-75
2021/04/30 09:26:50;;;;;;;19.65;12.18;;;;;;;;;;5031121;28;20033;-74
2021/04/30 09:29:17;;;;;;;22.88;12.55;;;;;;;;;;5034205;28;20056;-74
2021/04/30 09:31:44;;;;;;;19.20;11.55;;;;;;;;;;5034364;28;20013;-74
2021/04/30 09:34:15;;;;;;;22.02;12.10;;;;;;;;;;5011681;28;20026;-74
2021/04/30 09:37:02;;;;;;;22.85;12.27;;;;;;;;;;5007624;28;20421;-73
2021/04/30 09:39:28;;;;;;;21.63;13.20;;;;;;;;;;5029230;28;20411;-73
2021/04/30 09:42:10;;;;;;;25.48;14.05;;;;;;;;;;5032889;28;20083;-73
2021/04/30 09:44:36;;;;;;;21.95;13.27;;;;;;;;;;5016855;28;20072;-74
2021/04/30 09:47:11;;;;;;;19.67;13.05;;;;;;;;;;5020475;28;20029;-73
2021/04/30 09:49:37;;;;;;;24.25;13.40;;;;;;;;;;5034601;28;20045;-73
2021/04/30 09:52:03;;;;;;;21.50;11.90;;;;;;;;;;5034346;28;20401;-73
2021/04/30 09:54:29;;;;;;;22.83;12.93;;;;;;;;;;5031129;28;20037;-74
2021/04/30 09:57:08;;;;;;;26.38;13.73;;;;;;;;;;5031258;28;20069;-73
2021/04/30 09:59:37;;;;;;;19.85;12.90;;;;;;;;;;5014004;28;20029;-74
2021/04/30 10:02:13;;;;;;;18.30;11.68;;;;;;;;;;5013911;28;20036;-73
2021/04/30 10:04:39;;;;;;;19.73;12.75;;;;;;;;;;5014064;28;20085;-74
2021/04/30 10:07:05;;;;;;;20.10;12.75;;;;;;;;;;5015473;28;20030;-74
2021/04/30 10:09:34;;;;;;;17.92;12.35;;;;;;;;;;5016918;28;20413;-73
2021/04/30 10:12:18;;;;;;;18.45;14.18;;;;;;;;;;5019509;28;20021;-73
2021/04/30 10:14:45;;;;;;;18.88;13.35;;;;;;;;;;5033752;28;20600;-73
2021/04/30 10:17:14;;;;;;;29.35;14.52;;;;;;;;;;5033498;28;20446;-74
2021/04/30 10:19:40;;;;;;;21.85;14.10;;;;;;;;;;5014808;28;20017;-72
2021/04/30 10:22:05;;;;;;;22.33;14.18;;;;;;;;;;5015405;28;20017;-73
2021/04/30 10:24:31;;;;;;;22.20;13.30;;;;;;;;;;5024396;28;20044;-73
2021/04/30 10:26:57;;;;;;;20.23;13.10;;;;;;;;;;5033319;28;20005;-73
2021/04/30 10:29:23;;;;;;;17.90;12.32;;;;;;;;;;5011879;28;20362;-73
2021/04/30 10:31:51;;;;;;;19.20;12.82;;;;;;;;;;4996453;28;20022;-72
2021/04/30 10:34:31;;;;;;;19.13;13.48;;;;;;;;;;5031920;28;20022;-73
2021/04/30 10:36:58;;;;;;;24.33;13.85;;;;;;;;;;5033022;28;20036;-73
2021/04/30 10:39:33;;;;;;;19.88;13.82;;;;;;;;;;5033370;28;20039;-73
2021/04/30 10:42:07;;;;;;;23.90;12.73;;;;;;;;;;5017971;28;20036;-72
2021/04/30 10:44:39;;;;;;;16.77;13.18;;;;;;;;;;5033882;28;20040;-73
2021/04/30 10:47:04;;;;;;;20.38;13.30;;;;;;;;;;5029925;28;20025;-73
2021/04/30 10:49:30;;;;;;;20.20;13.20;;;;;;;;;;5031177;28;20107;-75
2021/04/30 10:52:08;;;;;;;18.93;12.13;;;;;;;;;;5032204;28;20377;-75
2021/04/30 10:54:40;;;;;;;25.45;14.00;;;;;;;;;;5030029;28;20727;-75
2021/04/30 10:57:07;;;;;;;25.75;14.60;;;;;;;;;;5032800;28;20046;-75
2021/04/30 10:59:35;;;;;;;24.40;14.45;;;;;;;;;;5032486;28;20442;-75
2021/04/30 11:02:08;;;;;;;25.40;15.10;;;;;;;;;;5032900;28;20050;-75
2021/04/30 11:04:34;;;;;;;27.05;14.95;;;;;;;;;;5032010;28;20021;-74
2021/04/30 11:06:59;;;;;;;21.67;13.73;;;;;;;;;;5011902;28;20083;-74
2021/04/30 11:09:30;;;;;;;25.80;15.82;;;;;;;;;;5026507;28;20071;-74
2021/04/30 11:11:58;;;;;;;19.38;14.25;;;;;;;;;;5018976;28;20402;-74
2021/04/30 11:14:24;;;;;;;20.17;13.95;;;;;;;;;;5014137;28;20098;-75
2021/04/30 11:16:49;;;;;;;22.90;14.23;;;;;;;;;;5020286;28;20030;-74
2021/04/30 11:19:15;;;;;;;23.50;14.00;;;;;;;;;;5023898;28;20047;-74
2021/04/30 11:21:43;;;;;;;17.73;13.05;;;;;;;;;;5030203;28;20034;-74
2021/04/30 11:24:27;;;;;;;17.80;12.48;;;;;;;;;;5023778;28;20397;-74
2021/04/30 11:27:07;;;;;;;16.02;12.93;;;;;;;;;;5032725;28;20041;-74
2021/04/30 11:29:33;;;;;;;15.02;12.05;;;;;;;;;;5032138;28;20032;-74
2021/04/30 11:32:17;;;;;;;17.70;11.73;;;;;;;;;;5032416;28;20034;-74
2021/04/30 11:34:50;;;;;;;17.83;11.10;;;;;;;;;;5032438;28;20021;-74
2021/04/30 11:37:16;;;;;;;14.48;10.52;;;;;;;;;;5032551;28;20036;-74
2021/04/30 11:39:42;;;;;;;14.90;10.52;;;;;;;;;;5032145;28;20041;-74
2021/04/30 11:42:10;;;;;;;21.30;11.77;;;;;;;;;;5019240;28;20026;-74
2021/04/30 11:44:39;;;;;;;16.30;11.43;;;;;;;;;;5028857;28;20036;-74
2021/04/30 11:47:07;;;;;;;18.55;13.15;;;;;;;;;;5026534;28;20017;-75
2021/04/30 11:49:38;;;;;;;23.50;14.63;;;;;;;;;;5031286;28;20105;-74
2021/04/30 11:52:03;;;;;;;21.02;15.55;;;;;;;;;;5031611;28;20033;-75
2021/04/30 11:54:33;;;;;;;21.30;15.65;;;;;;;;;;5029344;28;20408;-73
2021/04/30 11:56:59;;;;;;;24.80;14.52;;;;;;;;;;5032579;28;20483;-74
2021/04/30 11:59:24;;;;;;;23.95;16.00;;;;;;;;;;5031524;28;20021;-74
2021/04/30 12:02:00;;;;;;;18.90;14.82;;;;;;;;;;5021412;28;20464;-76
2021/04/30 12:04:26;;;;;;;;;;;;;;;;;;5019595;28;20026;-75
2021/04/30 12:06:51;;;;;;;26.15;16.65;;;;;;;;;;5020760;28;19916;-74
2021/04/30 12:09:23;;;;;;;22.23;15.18;;;;;;;;;;5036018;28;20024;-76
2021/04/30 12:11:48;;;;;;;22.80;15.68;;;;;;;;;;5021744;28;20025;-75
2021/04/30 12:14:14;;;;;;;22.02;14.98;;;;;;;;;;5035731;28;20389;-75
2021/04/30 12:16:41;;;;;;;24.08;15.23;;;;;;;;;;5036183;28;20021;-75
2021/04/30 12:19:09;;;;;;;24.13;14.68;;;;;;;;;;5033502;28;20476;-75
2021/04/30 12:21:36;;;;;;;23.10;13.25;;;;;;;;;;5034214;28;20064;-75
2021/04/30 12:24:04;;;;;;;15.95;11.63;;;;;;;;;;5029563;28;20026;-75
2021/04/30 12:26:36;;;;;;;17.10;11.18;;;;;;;;;;5032649;28;20055;-74
2021/04/30 12:29:06;;;;;;;17.02;12.05;;;;;;;;;;5035567;28;20025;-75
2021/04/30 12:31:32;;;;;;;14.10;10.75;;;;;;;;;;5032891;28;20034;-74
2021/04/30 12:33:57;;;;;;;13.45;9.98;;;;;;;;;;5019837;28;20060;-74
2021/04/30 12:36:23;;;;;;;12.33;9.53;;;;;;;;;;5035531;28;20032;-75
2021/04/30 12:38:51;;;;;;;12.32;8.45;;;;;;;;;;5035657;28;20055;-75
2021/04/30 12:41:23;;;;;;;11.82;9.30;;;;;;;;;;5035703;28;20089;-74
2021/04/30 12:43:51;;;;;;;13.23;9.82;;;;;;;;;;5035813;28;20029;-74
2021/04/30 12:46:24;;;;;;;13.20;9.57;;;;;;;;;;5005490;28;20018;-74
2021/04/30 12:48:50;;;;;;;18.40;9.57;;;;;;;;;;5035758;28;20021;-76
2021/04/30 12:51:22;;;;;;;14.05;9.88;;;;;;;;;;5035659;28;20079;-74
2021/04/30 12:53:47;;;;;;;16.00;9.80;;;;;;;;;;5018047;28;20036;-74
2021/04/30 12:56:27;;;;;;;12.75;9.90;;;;;;;;;;5034625;28;20045;-74
2021/04/30 12:59:06;;;;;;;12.18;9.98;;;;;;;;;;5034499;28;20018;-75
2021/04/30 13:01:31;;;;;;;14.73;9.27;;;;;;;;;;5019180;28;20021;-75
2021/04/30 13:03:56;;;;;;;14.60;9.40;;;;;;;;;;5033609;28;20051;-77
2021/04/30 13:06:22;;;;;;;14.63;8.88;;;;;;;;;;5032881;28;20069;-75
2021/04/30 13:08:49;;;;;;;16.58;9.63;;;;;;;;;;5035361;28;20026;-76
2021/04/30 13:11:15;;;;;;;13.63;9.93;;;;;;;;;;5035212;28;20087;-76
2021/04/30 13:13:56;;;;;;;14.82;10.02;;;;;;;;;;5031180;28;20044;-76
2021/04/30 13:16:31;;;;;;;16.90;9.18;;;;;;;;;;5016747;28;20284;-77
2021/04/30 13:18:56;;;;;;;;;;;;;;;;;;5033596;28;20521;-76
2021/04/30 13:21:29;;;;;;;11.63;8.35;;;;;;;;;;5031973;28;19909;-75
2021/04/30 13:24:09;;;;;;;10.73;8.23;;;;;;;;;;5034824;28;20357;-74
2021/04/30 13:26:34;;;;;;;11.23;7.55;;;;;;;;;;5021871;28;20025;-75
2021/04/30 13:29:28;;;;;;;17.57;9.10;;;;;;;;;;5022839;28;20028;-76
2021/04/30 13:32:01;;;;;;;12.55;8.52;;;;;;;;;;5014978;28;20257;-76
2021/04/30 13:34:33;;;;;;;12.32;8.68;;;;;;;;;;5017014;28;20030;-76
2021/04/30 13:37:02;;;;;;;11.30;7.47;;;;;;;;;;5029228;28;20025;-75
2021/04/30 13:39:29;;;;;;;11.18;6.72;;;;;;;;;;5034619;28;20484;-77
2021/04/30 13:41:55;;;;;;;12.43;6.75;;;;;;;;;;5031783;28;20318;-78
2021/04/30 13:44:22;;;;;;;12.70;7.65;;;;;;;;;;5031944;28;20124;-79
2021/04/30 13:46:58;;;;;;;10.85;7.03;;;;;;;;;;5032199;28;20025;-80
2021/04/30 13:49:45;;;;;;;10.48;7.38;;;;;;;;;;5016144;28;20056;-80
2021/04/30 13:52:10;;;;;;;13.13;7.85;;;;;;;;;;5034179;28;20399;-81
2021/04/30 13:54:40;;;;;;;10.87;7.57;;;;;;;;;;5016672;28;20022;-81
2021/04/30 13:57:05;;;;;;;9.23;7.35;;;;;;;;;;5028046;28;20041;-81
2021/04/30 13:59:31;;;;;;;12.35;7.43;;;;;;;;;;5033750;28;20025;-80
2021/04/30 14:02:00;;;;;;;15.27;7.78;;;;;;;;;;5031097;28;20035;-78
2021/04/30 14:04:25;;;;;;;10.65;7.32;;;;;;;;;;5033954;28;20017;-81
2021/04/30 14:06:50;;;;;;;11.43;7.75;;;;;;;;;;5033072;28;20091;-81
2021/04/30 14:09:15;;;;;;;14.67;8.00;;;;;;;;;;5014338;28;20108;-81
2021/04/30 14:11:41;;;;;;;10.20;7.43;;;;;;;;;;5014468;28;20426;-84
2021/04/30 14:14:08;;;;;;;13.90;8.07;;;;;;;;;;5032706;28;20255;-81
2021/04/30 14:16:33;;;;;;;11.00;8.30;;;;;;;;;;5015649;28;20317;-80
2021/04/30 14:18:59;;;;;;;16.07;7.90;;;;;;;;;;5031995;28;20100;-79
2021/04/30 14:21:24;;;;;;;13.43;8.33;;;;;;;;;;5033450;28;20096;-78
2021/04/30 14:23:51;;;;;;;11.63;8.27;;;;;;;;;;5033314;28;20109;-78